WetterOnline ( http://www.wetteronline.de )

Wetter aktuell Leer

Aktuelles Wetter: Emden (5m)

6-stündlich | Neueste Meldungen
Ortszeit Temperatur Wetter
Mi, 19.09. 20:00 21.2° C leicht bewölkt
Mi, 19.09. 14:00 23.7° C wolkig
Mi, 19.09. 8:00 15.3° C wolkig
Mi, 19.09. 2:00 16.1° C leicht bewölkt
Di, 18.09. 20:00 19.5° C wolkenlos
Di, 18.09. 14:00 26.5° C wolkenlos
Di, 18.09. 8:00 13.2° C wolkenlos
Di, 18.09. 2:00 12.1° C -
Ortszeit Temperatur Wetter
Mi, 19.09. 20:00 21.2° C leicht bewölkt
Mi, 19.09. 19:40 21.4° C leicht bewölkt
Mi, 19.09. 19:30 21.7° C leicht bewölkt
Mi, 19.09. 19:20 21.7° C leicht bewölkt
Mi, 19.09. 19:10 21.7° C wolkenlos
Mi, 19.09. 19:00 22.0° C fast wolkenlos
Mi, 19.09. 18:50 22.0° C fast wolkenlos
Mi, 19.09. 18:30 22.3° C leicht bewölkt
Mi, 19.09. 18:00 22.4° C leicht bewölkt
Mi, 19.09. 17:30 22.9° C leicht bewölkt
Mi, 19.09. 17:00 23.3° C leicht bewölkt
Ortszeit Relative Feuchte Sichtweite
Mi, 19.09. 20:00 59% 45 km
Mi, 19.09. 14:00 56% 35 km
Mi, 19.09. 8:00 87% 35 km
Mi, 19.09. 2:00 87% 23 km
Di, 18.09. 20:00 74% 30 km
Di, 18.09. 14:00 46% 60 km
Di, 18.09. 8:00 75% 40 km
Di, 18.09. 2:00 83% 30 km
Ortszeit Relative Feuchte Sichtweite
Mi, 19.09. 20:00 59% 45 km
Mi, 19.09. 19:40 58% -
Mi, 19.09. 19:30 57% 45 km
Mi, 19.09. 19:20 57% -
Mi, 19.09. 19:10 57% -
Mi, 19.09. 19:00 55% 50 km
Mi, 19.09. 18:50 55% -
Mi, 19.09. 18:30 54% 55 km
Mi, 19.09. 18:00 54% 40 km
Mi, 19.09. 17:30 53% 50 km
Mi, 19.09. 17:00 52% 45 km
Ortszeit Niederschlagsmenge Niederschlagsart
Mi, 19.09. 20:00 0.0 l/m2 in 12 Std. -
Mi, 19.09. 14:00 0.0 l/m2 in 6 Std. -
Mi, 19.09. 8:00 0.0 l/m2 in 12 Std. -
Mi, 19.09. 2:00 0.0 l/m2 in 6 Std. -
Di, 18.09. 20:00 0.0 l/m2 in 12 Std. -
Di, 18.09. 14:00 0.0 l/m2 in 6 Std. -
Di, 18.09. 8:00 0.0 l/m2 in 12 Std. -
Di, 18.09. 2:00 0.0 l/m2 in 6 Std. -
Ortszeit Niederschlagsmenge Niederschlagsart
Mi, 19.09. 20:00 0.0 l/m2 in 1 Std. -
Mi, 19.09. 19:40 keine Meldung -
Mi, 19.09. 19:30 0.0 l/m2 in 1 Std. -
Mi, 19.09. 19:20 keine Meldung -
Mi, 19.09. 19:10 keine Meldung -
Mi, 19.09. 19:00 0.0 l/m2 in 1 Std. -
Mi, 19.09. 18:50 keine Meldung -
Mi, 19.09. 18:30 0.0 l/m2 in 1 Std. -
Mi, 19.09. 18:00 0.0 l/m2 in 1 Std. -
Mi, 19.09. 17:30 0.0 l/m2 in 1 Std. -
Mi, 19.09. 17:00 0.0 l/m2 in 1 Std. -
Ortszeit Stärke Spitze Richtung
km/h Bft. km/h Grad Sektor
Mi, 19.09. 20:00 22 4 50 210° SW
Mi, 19.09. 14:00 22 4 44 220° SW
Mi, 19.09. 8:00 17 3 31 200° S
Mi, 19.09. 2:00 14 3 40 200° S
Di, 18.09. 20:00 20 4 43 260° W
Di, 18.09. 14:00 26 4 41 200° S
Di, 18.09. 8:00 13 3 17 150° SO
Di, 18.09. 2:00 7 2 14 140° SO
Ortszeit Stärke Spitze Richtung
km/h Bft. km/h Grad Sektor
Mi, 19.09. 20:00 22 4 40 210° SW
Mi, 19.09. 19:40 20 4 - 210° SW
Mi, 19.09. 19:30 22 4 37 210° SW
Mi, 19.09. 19:20 22 4 - 210° SW
Mi, 19.09. 19:10 22 4 - 210° SW
Mi, 19.09. 19:00 22 4 47 210° SW
Mi, 19.09. 18:50 22 4 - 210° SW
Mi, 19.09. 18:30 25 4 47 210° SW
Mi, 19.09. 18:00 19 3 46 230° SW
Mi, 19.09. 17:30 25 4 47 230° SW
Mi, 19.09. 17:00 22 4 43 230° SW
Ortszeit Untergrenze Bedeckung Gattung
total tief tief mittel hoch
Mi, 19.09. 20:00 1500 m 5/8 1/8 - - -
Mi, 19.09. 14:00 1200 m 5/8 5/8 - - -
Mi, 19.09. 8:00 1230 m 8/8 3/8 - - -
Mi, 19.09. 2:00 7500 m 4/8 0/8 - - -
Di, 18.09. 20:00 - 0/8 0/8 - - -
Di, 18.09. 14:00 - 0/8 0/8 - - -
Di, 18.09. 8:00 - 0/8 0/8 - - -
Di, 18.09. 2:00 - - - - - -
Ortszeit Bedeckungsgrad in Achtel und Wolkenuntergrenze
Mi, 19.09. 20:00 1(1500m) 4(9000m) 5(10500m)
Mi, 19.09. 19:40 4(10500m)
Mi, 19.09. 19:30 4(10500m)
Mi, 19.09. 19:20 4(10500m)
Mi, 19.09. 19:10 keine Wolken
Mi, 19.09. 19:00 2(8400m)
Mi, 19.09. 18:50 2(8400m)
Mi, 19.09. 18:30 4(8400m)
Mi, 19.09. 18:00 1(1350m) 3(8400m)
Mi, 19.09. 17:30 2(1410m) 4(8700m)
Mi, 19.09. 17:00 1(1350m) 4(9000m) 6(9000m)
Ortszeit Luftdruck NN (hPa) Tendenz (hPa in 3 Std.)
Mi, 19.09. 20:00 1014 + 0,6
Mi, 19.09. 14:00 1014 - 1,1
Mi, 19.09. 8:00 1015 + 0,2
Mi, 19.09. 2:00 1014 + 0,6
Di, 18.09. 20:00 1012 + 2,4
Di, 18.09. 14:00 1009 - 0,4
Di, 18.09. 8:00 1011 - 1,2
Di, 18.09. 2:00 1014 - 1,7
Ortszeit Luftdruck NN (hPa) Tendenz (hPa in 3 Std.)
Mi, 19.09. 20:00 1014 + 0,6
Mi, 19.09. 19:40 1014 keine Meldung
Mi, 19.09. 19:30 1014 + 0,3
Mi, 19.09. 19:20 1014 keine Meldung
Mi, 19.09. 19:10 1014 keine Meldung
Mi, 19.09. 19:00 1014 + 0,3
Mi, 19.09. 18:50 1014 keine Meldung
Mi, 19.09. 18:30 1014 + 0,2
Mi, 19.09. 18:00 1014 + 0,3
Mi, 19.09. 17:30 1014 0,0
Mi, 19.09. 17:00 1014 - 0,1
Ortszeit Schneehöhe (cm)
Mi, 19.09. 20:00 -
Mi, 19.09. 14:00 -
Mi, 19.09. 8:00 -
Mi, 19.09. 2:00 -
Di, 18.09. 20:00 -
Di, 18.09. 14:00 -
Di, 18.09. 8:00 -
Di, 18.09. 2:00 -
Ortszeit Schneehöhe (cm)
Mi, 19.09. 20:00 -
Mi, 19.09. 19:40 -
Mi, 19.09. 19:30 -
Mi, 19.09. 19:20 -
Mi, 19.09. 19:10 -
Mi, 19.09. 19:00 -
Mi, 19.09. 18:50 -
Mi, 19.09. 18:30 -
Mi, 19.09. 18:00 -
Mi, 19.09. 17:30 -
Mi, 19.09. 17:00 -
Link zu dieser Seite / Seite empfehlen

Das Wetter in ...